Time;durP1;ratioP1;P1;durP2;ratioP2;P2;SDS_P1;SDS_P2;PMS_P1;PMS_P2;Temp;Humidity;BMP_temperature;BMP_pressure;BME280_temperature;BME280_humidity;BME280_pressure;Samples;Min_cycle;Max_cycle;Signal;HPM_P1;HPM_P2
2022/07/11 00:01:13;;;;;;;2.73;1.60;;;18.30;80.20;;;;;;5027567;28;20490;-89
2022/07/11 00:03:40;;;;;;;3.40;1.40;;;18.30;79.70;;;;;;5026300;28;20504;-90
2022/07/11 00:06:07;;;;;;;4.53;2.00;;;18.40;79.10;;;;;;5030383;28;20434;-89
2022/07/11 00:08:33;;;;;;;2.67;1.80;;;18.40;79.30;;;;;;5028435;28;20439;-89
2022/07/11 00:13:34;;;;;;;3.53;1.73;;;18.30;79.50;;;;;;5032620;28;20830;-89
2022/07/11 00:16:02;;;;;;;3.37;2.33;;;18.30;79.90;;;;;;5033519;28;20499;-89
2022/07/11 00:18:29;;;;;;;3.90;2.60;;;18.20;80.60;;;;;;5032645;28;20894;-89
2022/07/11 00:20:56;;;;;;;6.73;2.90;;;18.20;82.10;;;;;;5037340;28;20458;-89
2022/07/11 00:23:23;;;;;;;6.30;3.37;;;18.10;81.80;;;;;;5036410;28;20523;-89
2022/07/11 00:25:52;;;;;;;4.60;3.60;;;18.00;82.50;;;;;;5040644;28;20853;-90
2022/07/11 00:28:28;;;;;;;3.97;3.27;;;17.90;83.00;;;;;;5034017;28;20512;-90
2022/07/11 00:30:55;;;;;;;7.80;3.23;;;17.80;83.70;;;;;;5029127;28;20454;-89
2022/07/11 00:33:23;;;;;;;9.60;4.13;;;17.70;84.80;;;;;;5033794;28;20469;-90
2022/07/11 00:35:57;;;;;;;6.23;4.60;;;17.60;85.10;;;;;;5033644;28;20445;-89
2022/07/11 00:38:24;;;;;;;9.00;4.37;;;17.50;85.80;;;;;;5043603;28;20490;-89
2022/07/11 00:40:50;;;;;;;7.53;5.20;;;17.40;86.70;;;;;;5042845;28;20450;-89
2022/07/11 00:43:19;;;;;;;7.80;4.23;;;17.40;87.40;;;;;;5033077;28;20844;-90
2022/07/11 00:45:48;;;;;;;4.80;3.57;;;17.40;87.80;;;;;;5032955;28;20446;-89
2022/07/11 00:48:14;;;;;;;6.20;4.40;;;17.30;88.50;;;;;;5032797;28;20984;-90
2022/07/11 00:50:43;;;;;;;6.70;4.47;;;17.30;89.20;;;;;;5033244;28;20996;-89
2022/07/11 00:53:09;;;;;;;9.17;4.53;;;17.20;89.80;;;;;;5026681;28;20476;-88
2022/07/11 00:55:36;;;;;;;5.57;4.10;;;17.10;90.10;;;;;;5036770;28;20445;-88
2022/07/11 00:58:03;;;;;;;9.20;4.50;;;17.10;90.50;;;;;;5037306;28;20481;-88
2022/07/11 01:00:30;;;;;;;9.23;5.57;;;17.10;90.70;;;;;;5037477;28;20858;-87
2022/07/11 01:02:58;;;;;;;8.97;4.53;;;17.00;91.00;;;;;;5036208;28;20469;-88
2022/07/11 01:05:24;;;;;;;9.73;4.63;;;17.00;91.30;;;;;;5035996;28;20445;-87
2022/07/11 01:07:52;;;;;;;8.60;4.83;;;17.00;91.60;;;;;;5047430;28;20414;-88
2022/07/11 01:10:19;;;;;;;8.10;5.50;;;16.90;92.10;;;;;;5047230;28;20468;-88
2022/07/11 01:12:46;;;;;;;7.97;5.63;;;16.90;92.40;;;;;;5037252;28;20477;-87
2022/07/11 01:15:15;;;;;;;7.10;5.33;;;17.00;92.80;;;;;;5039766;28;20438;-87
2022/07/11 01:17:42;;;;;;;7.60;5.83;;;17.00;93.00;;;;;;5042269;28;20482;-88
2022/07/11 01:20:09;;;;;;;12.23;5.53;;;17.00;93.00;;;;;;5033034;28;20450;-89
2022/07/11 01:22:44;;;;;;;8.60;4.83;;;17.00;93.30;;;;;;5032880;28;20457;-89
2022/07/11 01:25:29;;;;;;;7.23;4.20;;;17.00;93.00;;;;;;5030908;28;20437;-89
2022/07/11 01:27:56;;;;;;;8.10;4.93;;;16.90;93.00;;;;;;5032083;28;20996;-89
2022/07/11 01:30:23;;;;;;;8.83;5.17;;;16.90;93.40;;;;;;5030177;28;20488;-89
2022/07/11 01:32:52;;;;;;;11.30;4.90;;;16.80;94.00;;;;;;5032366;28;20535;-89
2022/07/11 01:35:18;;;;;;;8.00;4.10;;;16.80;94.20;;;;;;5032271;28;20450;-89
2022/07/11 01:37:45;;;;;;;5.70;4.30;;;16.80;94.20;;;;;;5032497;28;20480;-89
2022/07/11 01:40:14;;;;;;;9.13;5.80;;;16.70;94.50;;;;;;5036873;28;20472;-88
2022/07/11 01:42:40;;;;;;;8.60;4.40;;;16.80;95.00;;;;;;5041441;28;20477;-89
2022/07/11 01:45:08;;;;;;;10.63;5.17;;;16.80;95.10;;;;;;5040975;28;20434;-90
2022/07/11 01:47:35;;;;;;;7.47;4.70;;;16.80;95.60;;;;;;5045932;28;20453;-89
2022/07/11 01:50:01;;;;;;;7.07;4.90;;;16.80;95.60;;;;;;5038083;28;20857;-89
2022/07/11 01:52:28;;;;;;;9.87;5.30;;;16.80;95.50;;;;;;5034488;28;20461;-88
2022/07/11 01:54:55;;;;;;;6.37;4.23;;;16.80;95.40;;;;;;5037818;28;20449;-89
2022/07/11 01:57:23;;;;;;;6.50;3.80;;;16.90;95.50;;;;;;5035879;28;20485;-89
2022/07/11 01:59:50;;;;;;;6.80;3.30;;;16.90;95.00;;;;;;5032190;28;20445;-89
2022/07/11 02:02:17;;;;;;;3.67;2.90;;;16.90;94.50;;;;;;5032550;28;20466;-89
2022/07/11 02:04:44;;;;;;;5.90;3.07;;;17.00;94.20;;;;;;5030874;28;20442;-89
2022/07/11 02:07:11;;;;;;;5.37;3.50;;;17.00;94.30;;;;;;5038347;28;20453;-89
2022/07/11 02:09:38;;;;;;;6.90;3.90;;;16.90;94.70;;;;;;5038195;28;20438;-89
2022/07/11 02:12:07;;;;;;;8.57;3.80;;;16.90;94.80;;;;;;5035780;28;20465;-88
2022/07/11 02:14:35;;;;;;;7.83;4.40;;;16.90;94.60;;;;;;5048514;28;20442;-88
2022/07/11 02:17:01;;;;;;;7.13;4.20;;;16.90;95.00;;;;;;5040147;28;20445;-89
2022/07/11 02:19:28;;;;;;;12.07;4.70;;;16.90;95.20;;;;;;5034486;28;20535;-88
2022/07/11 02:21:55;;;;;;;11.90;4.10;;;16.90;95.10;;;;;;5036443;28;20464;-89
2022/07/11 02:24:22;;;;;;;6.47;3.50;;;16.90;95.20;;;;;;5035109;28;20441;-89
2022/07/11 02:26:48;;;;;;;5.43;3.87;;;16.90;95.50;;;;;;5035621;28;20449;-89
2022/07/11 02:29:22;;;;;;;5.30;3.97;;;16.80;95.40;;;;;;5035560;28;20445;-89
2022/07/11 02:31:49;;;;;;;7.07;3.70;;;16.80;95.30;;;;;;5033557;28;20469;-89
2022/07/11 02:34:16;;;;;;;6.40;3.60;;;16.80;95.50;;;;;;5034835;28;20441;-89
2022/07/11 02:36:43;;;;;;;7.73;4.20;;;16.90;95.40;;;;;;5032319;28;20449;-89
2022/07/11 02:39:09;;;;;;;6.40;4.30;;;16.90;95.60;;;;;;5038846;28;20477;-88
2022/07/11 02:41:36;;;;;;;5.53;4.23;;;16.80;95.70;;;;;;5034637;28;20466;-88
2022/07/11 02:44:03;;;;;;;9.90;4.40;;;16.80;96.00;;;;;;5030183;28;20446;-89
2022/07/11 02:46:29;;;;;;;11.60;4.37;;;16.80;96.10;;;;;;5035474;28;20797;-88
2022/07/11 02:48:57;;;;;;;4.60;4.03;;;16.80;96.50;;;;;;5034462;28;20438;-89
2022/07/11 02:51:24;;;;;;;7.70;4.93;;;16.90;96.40;;;;;;5045382;28;20442;-89
2022/07/11 02:53:52;;;;;;;6.00;4.73;;;16.90;96.50;;;;;;5052091;28;20437;-89
2022/07/11 02:56:19;;;;;;;7.80;5.10;;;16.80;96.80;;;;;;5044175;28;20465;-88
2022/07/11 02:58:45;;;;;;;7.37;5.10;;;16.80;97.00;;;;;;5044391;28;20489;-88
2022/07/11 03:01:12;;;;;;;6.87;5.40;;;16.80;97.10;;;;;;5035320;28;20434;-88
2022/07/11 03:03:39;;;;;;;6.40;4.87;;;16.90;97.00;;;;;;5035310;28;20777;-88
2022/07/11 03:06:07;;;;;;;4.70;4.30;;;16.80;97.00;;;;;;5034490;28;20445;-88
2022/07/11 03:08:33;;;;;;;6.03;4.10;;;16.80;97.30;;;;;;5034570;28;20448;-88
2022/07/11 03:11:00;;;;;;;5.83;4.70;;;16.80;97.40;;;;;;5038798;28;20513;-87
2022/07/11 03:13:27;;;;;;;5.70;4.23;;;16.80;97.60;;;;;;5043193;28;20466;-89
2022/07/11 03:15:53;;;;;;;5.70;4.07;;;16.80;97.70;;;;;;5038504;28;20934;-89
2022/07/11 03:18:20;;;;;;;6.60;5.47;;;16.80;97.90;;;;;;5038480;28;20529;-89
2022/07/11 03:20:47;;;;;;;5.53;3.70;;;16.80;97.90;;;;;;5035791;28;20441;-89
2022/07/11 03:23:15;;;;;;;5.90;3.77;;;16.80;97.60;;;;;;5035028;28;20982;-89
2022/07/11 03:25:41;;;;;;;5.83;3.63;;;16.90;97.60;;;;;;5034994;28;20969;-89
2022/07/11 03:28:08;;;;;;;6.47;3.97;;;17.00;97.40;;;;;;5036190;28;20438;-89
2022/07/11 03:30:35;;;;;;;8.40;4.37;;;17.00;97.40;;;;;;5035045;28;20438;-89
2022/07/11 03:33:01;;;;;;;7.50;3.47;;;17.00;97.50;;;;;;5035069;28;20469;-89
2022/07/11 03:35:43;;;;;;;5.63;3.80;;;16.90;97.10;;;;;;5034379;28;20433;-89
2022/07/11 03:38:10;;;;;;;8.87;4.33;;;17.00;97.20;;;;;;5036607;28;20474;-89
2022/07/11 03:40:40;;;;;;;8.13;4.80;;;16.90;97.20;;;;;;5038756;28;20507;-89
2022/07/11 03:43:07;;;;;;;8.90;5.00;;;17.00;97.90;;;;;;5036340;28;20489;-88
2022/07/11 03:45:33;;;;;;;7.97;5.03;;;17.00;98.10;;;;;;5036224;28;20452;-89
2022/07/11 03:48:00;;;;;;;11.27;5.20;;;17.00;98.10;;;;;;5035293;28;20441;-89
2022/07/11 03:50:27;;;;;;;5.33;3.83;;;17.00;98.20;;;;;;5034580;28;20449;-89
2022/07/11 03:52:54;;;;;;;7.70;5.03;;;17.00;98.40;;;;;;5034376;28;20484;-89
2022/07/11 03:55:21;;;;;;;8.47;5.03;;;17.10;98.50;;;;;;5034195;28;20446;-89
2022/07/11 03:57:49;;;;;;;7.23;4.87;;;17.10;98.30;;;;;;5034405;28;20448;-89
2022/07/11 04:00:16;;;;;;;7.97;5.60;;;17.10;98.10;;;;;;5038936;28;20450;-89
2022/07/11 04:02:43;;;;;;;7.93;5.47;;;17.20;98.00;;;;;;5047099;28;20472;-89
2022/07/11 04:05:10;;;;;;;8.90;5.87;;;17.20;97.90;;;;;;5035781;28;20492;-89
2022/07/11 04:07:36;;;;;;;10.10;6.40;;;17.20;97.50;;;;;;5051721;28;20426;-89
2022/07/11 04:10:03;;;;;;;6.73;5.77;;;17.20;97.50;;;;;;5042100;28;20545;-89
2022/07/11 04:12:30;;;;;;;8.20;4.97;;;17.20;97.20;;;;;;5037621;28;20828;-88
2022/07/11 04:14:59;;;;;;;5.80;4.07;;;17.20;97.00;;;;;;5046144;28;20448;-89
2022/07/11 04:17:26;;;;;;;8.77;5.10;;;17.20;97.20;;;;;;5036278;28;20520;-88
2022/07/11 04:19:53;;;;;;;9.87;4.70;;;17.30;97.10;;;;;;5038699;28;20485;-88
2022/07/11 04:22:20;;;;;;;7.90;4.07;;;17.30;97.10;;;;;;5035466;28;20477;-89
2022/07/11 04:24:47;;;;;;;7.07;4.70;;;17.30;97.10;;;;;;5037759;28;20456;-89
2022/07/11 04:27:13;;;;;;;7.93;4.03;;;17.30;97.00;;;;;;5034897;28;20450;-90
2022/07/11 04:29:40;;;;;;;10.50;4.80;;;17.30;97.00;;;;;;5034923;28;20874;-90
2022/07/11 04:32:09;;;;;;;7.87;4.47;;;17.40;97.10;;;;;;5036023;28;20477;-90
2022/07/11 04:34:35;;;;;;;8.83;5.23;;;17.50;97.10;;;;;;5035136;28;20454;-87
2022/07/11 04:37:03;;;;;;;9.07;5.23;;;17.50;97.30;;;;;;5042761;28;20879;-88
2022/07/11 04:39:29;;;;;;;6.97;4.70;;;17.50;97.30;;;;;;5055083;28;20477;-89
2022/07/11 04:41:58;;;;;;;7.73;4.10;;;17.50;97.50;;;;;;5038380;28;20465;-89
2022/07/11 04:44:26;;;;;;;5.93;4.53;;;17.60;97.50;;;;;;5036840;28;20446;-90
2022/07/11 04:46:52;;;;;;;11.30;4.50;;;17.60;96.90;;;;;;5036865;28;20452;-89
2022/07/11 04:49:20;;;;;;;8.83;4.87;;;17.60;96.60;;;;;;5040166;28;20438;-89
2022/07/11 04:51:47;;;;;;;6.67;4.20;;;17.60;96.80;;;;;;5040029;28;20472;-88
2022/07/11 04:54:15;;;;;;;9.50;4.33;;;17.70;96.80;;;;;;5039674;28;20458;-90
2022/07/11 04:56:42;;;;;;;9.37;4.27;;;17.70;96.80;;;;;;5038639;28;20441;-88
2022/07/11 04:59:09;;;;;;;11.67;4.07;;;17.80;96.80;;;;;;5049525;28;20487;-89
2022/07/11 05:01:35;;;;;;;9.53;4.90;;;17.90;96.40;;;;;;5053454;28;20469;-90
2022/07/11 05:04:03;;;;;;;6.97;4.43;;;17.90;96.30;;;;;;5041385;28;20446;-88
2022/07/11 05:06:32;;;;;;;7.87;4.77;;;17.90;96.40;;;;;;5037701;28;20441;-89
2022/07/11 05:08:58;;;;;;;9.47;4.57;;;17.90;96.80;;;;;;5037524;28;20441;-89
2022/07/11 05:11:25;;;;;;;6.87;4.70;;;18.00;96.80;;;;;;5037247;28;20516;-90
2022/07/11 05:13:52;;;;;;;5.50;4.50;;;18.10;97.10;;;;;;5035942;28;20460;-90
2022/07/11 05:16:19;;;;;;;5.53;4.33;;;18.20;96.70;;;;;;5042734;28;20446;-90
2022/07/11 05:18:55;;;;;;;6.63;3.73;;;18.20;96.50;;;;;;5048510;28;20469;-88
2022/07/11 05:21:23;;;;;;;5.77;4.40;;;18.20;96.40;;;;;;5039730;28;20459;-87
2022/07/11 05:23:52;;;;;;;6.97;4.40;;;18.30;96.50;;;;;;5036741;28;20491;-87
2022/07/11 05:26:20;;;;;;;4.80;4.40;;;18.30;96.20;;;;;;5040193;28;20596;-90
2022/07/11 05:28:46;;;;;;;7.10;4.73;;;18.30;96.30;;;;;;5040476;28;20488;-88
2022/07/11 05:31:13;;;;;;;11.97;4.57;;;18.40;96.20;;;;;;5045221;28;20449;-88
2022/07/11 05:33:40;;;;;;;4.47;4.07;;;18.50;96.30;;;;;;5035351;28;20441;-87
2022/07/11 05:36:07;;;;;;;8.80;5.37;;;18.50;96.40;;;;;;5034541;28;20454;-88
2022/07/11 05:38:34;;;;;;;5.83;4.17;;;18.50;95.90;;;;;;5035169;28;20481;-87
2022/07/11 05:41:02;;;;;;;4.40;4.00;;;18.60;95.90;;;;;;5041094;28;20454;-88
2022/07/11 05:43:29;;;;;;;11.13;5.27;;;18.70;96.10;;;;;;5036707;28;20452;-88
2022/07/11 05:45:56;;;;;;;10.43;5.87;;;18.80;96.10;;;;;;5036072;28;20471;-89
2022/07/11 05:48:22;;;;;;;9.07;6.10;;;18.90;95.60;;;;;;5055390;28;20840;-89
2022/07/11 05:50:49;;;;;;;10.30;5.20;;;19.00;95.10;;;;;;5049356;28;20438;-89
2022/07/11 05:53:16;;;;;;;5.90;5.27;;;19.20;95.10;;;;;;5035879;28;20472;-88
2022/07/11 05:55:43;;;;;;;10.43;5.20;;;19.20;94.90;;;;;;5041513;28;20434;-88
2022/07/11 05:58:11;;;;;;;15.23;7.13;;;19.30;94.70;;;;;;5060516;28;20425;-89
2022/07/11 06:00:37;;;;;;;7.20;4.80;;;19.50;94.50;;;;;;5045597;28;20884;-89
2022/07/11 06:03:04;;;;;;;9.10;5.80;;;19.40;94.00;;;;;;5042947;28;20985;-89
2022/07/11 06:05:31;;;;;;;7.00;5.23;;;19.50;94.00;;;;;;5035961;28;20438;-89
2022/07/11 06:10:42;;;;;;;8.83;7.30;;;19.40;93.60;;;;;;5035094;28;20509;-87
2022/07/11 06:13:12;;;;;;;11.80;5.63;;;19.20;94.00;;;;;;5055527;23;21064;31
2022/07/11 06:15:41;;;;;;;9.77;6.07;;;19.20;94.40;;;;;;5005890;28;20465;-88
2022/07/11 06:18:07;;;;;;;8.20;5.53;;;19.40;94.00;;;;;;5001482;28;20467;-88
2022/07/11 06:20:34;;;;;;;9.00;5.97;;;19.70;93.80;;;;;;5001114;28;20498;-88
2022/07/11 06:23:01;;;;;;;13.57;6.47;;;19.70;93.40;;;;;;5019711;28;20435;-87
2022/07/11 06:25:28;;;;;;;7.90;6.00;;;19.80;93.30;;;;;;5019467;28;20447;-87
2022/07/11 06:27:55;;;;;;;7.93;5.83;;;19.80;93.20;;;;;;5006746;28;20446;-89
2022/07/11 06:30:21;;;;;;;12.73;6.63;;;19.80;93.40;;;;;;5016966;28;20450;-88
2022/07/11 06:32:49;;;;;;;6.57;5.33;;;20.10;93.00;;;;;;5020376;28;20471;-87
2022/07/11 06:35:16;;;;;;;8.17;5.47;;;20.30;92.30;;;;;;5008307;28;20554;-88
2022/07/11 06:37:43;;;;;;;6.50;4.80;;;20.10;92.60;;;;;;5003848;28;20460;-89
2022/07/11 06:40:11;;;;;;;5.33;4.30;;;20.20;92.50;;;;;;5006485;28;20538;-88
2022/07/11 06:42:38;;;;;;;6.43;5.13;;;20.30;92.20;;;;;;4999277;28;20480;-88
2022/07/11 06:45:06;;;;;;;7.70;5.03;;;20.30;92.10;;;;;;4999167;28;20843;-88
2022/07/11 06:47:33;;;;;;;6.73;5.50;;;20.10;92.30;;;;;;4998940;28;20447;-89
2022/07/11 06:50:01;;;;;;;8.83;5.50;;;20.10;92.50;;;;;;4998456;28;20517;-88
2022/07/11 06:52:28;;;;;;;7.27;4.63;;;20.30;92.20;;;;;;4999477;28;20427;-88
2022/07/11 06:54:55;;;;;;;7.57;5.37;;;20.50;92.50;;;;;;5003181;28;20533;-88
2022/07/11 06:57:22;;;;;;;8.43;5.13;;;20.80;91.70;;;;;;5011884;28;20436;-88
2022/07/11 06:59:49;;;;;;;5.57;4.90;;;21.10;91.30;;;;;;5000119;28;20479;-88
2022/07/11 07:02:16;;;;;;;8.83;4.80;;;21.10;90.90;;;;;;4997691;28;20562;-88
2022/07/11 07:04:43;;;;;;;5.30;4.80;;;21.30;90.50;;;;;;4996156;28;20470;-88
2022/07/11 07:07:11;;;;;;;6.87;5.80;;;21.50;90.00;;;;;;4995828;28;20432;-88
2022/07/11 07:09:37;;;;;;;5.30;4.80;;;21.70;88.60;;;;;;4994997;28;20486;-88
2022/07/11 07:12:05;;;;;;;8.10;5.50;;;21.70;89.20;;;;;;4995762;28;20443;-88
2022/07/11 07:14:32;;;;;;;6.30;4.83;;;21.80;87.90;;;;;;4995575;28;20468;-88
2022/07/11 07:16:59;;;;;;;6.60;5.00;;;21.90;87.20;;;;;;4994720;28;20471;-88
2022/07/11 07:19:25;;;;;;;6.20;5.13;;;22.20;86.20;;;;;;4996209;28;20486;-88
2022/07/11 07:21:52;;;;;;;5.53;4.90;;;22.40;85.20;;;;;;4995973;28;20435;-88
2022/07/11 07:24:20;;;;;;;9.37;5.13;;;22.50;84.60;;;;;;4996353;28;20475;-87
2022/07/11 07:26:47;;;;;;;5.50;5.00;;;22.70;83.20;;;;;;4995479;28;20454;-87
2022/07/11 07:29:13;;;;;;;6.20;5.37;;;22.60;83.30;;;;;;4995404;28;20463;-86
2022/07/11 07:31:41;;;;;;;11.10;4.93;;;22.50;83.10;;;;;;4995834;28;20455;-87
2022/07/11 07:34:08;;;;;;;6.70;5.33;;;22.50;83.10;;;;;;4995659;28;20478;-87
2022/07/11 07:36:34;;;;;;;4.90;4.50;;;22.80;82.00;;;;;;4995613;28;20534;-87
2022/07/11 07:39:02;;;;;;;6.90;4.50;;;23.40;81.60;;;;;;4994754;28;20940;-87
2022/07/11 07:41:30;;;;;;;6.63;4.23;;;25.10;76.00;;;;;;4995253;28;20948;-88
2022/07/11 07:43:57;;;;;;;4.07;2.90;;;26.10;69.60;;;;;;4995447;28;20883;-87
2022/07/11 07:46:23;;;;;;;4.60;3.60;;;27.40;64.00;;;;;;4996115;28;20802;-87
2022/07/11 07:48:50;;;;;;;5.23;3.50;;;28.50;60.60;;;;;;5005570;28;20431;-86
2022/07/11 07:51:17;;;;;;;3.30;3.00;;;29.40;57.10;;;;;;5014814;28;20550;-87
2022/07/11 07:53:43;;;;;;;3.53;2.90;;;29.20;55.70;;;;;;5014469;28;20456;-87
2022/07/11 07:56:10;;;;;;;3.00;2.50;;;28.40;56.50;;;;;;5001456;28;20962;-87
2022/07/11 07:58:39;;;;;;;3.00;2.70;;;27.70;57.20;;;;;;4995298;28;20455;-87
2022/07/11 08:03:50;;;;;;;2.57;2.37;;;27.30;58.30;;;;;;5008252;28;20491;-87
2022/07/11 08:06:17;;;;;;;4.07;2.53;;;27.10;58.30;;;;;;4996104;28;20460;-86
2022/07/11 08:08:43;;;;;;;2.40;2.13;;;27.20;58.20;;;;;;5000596;28;20442;-86
2022/07/11 08:11:10;;;;;;;6.93;3.47;;;27.90;57.50;;;;;;5008149;28;20439;-86
2022/07/11 08:13:38;;;;;;;5.63;3.00;;;27.40;57.10;;;;;;5006616;28;20475;-87
2022/07/11 08:16:06;;;;;;;3.73;3.30;;;27.90;57.30;;;;;;4994573;28;20455;-87
2022/07/11 08:18:33;;;;;;;4.23;2.93;;;28.30;55.50;;;;;;4995030;28;20481;-87
2022/07/11 08:21:00;;;;;;;4.40;2.80;;;28.20;55.60;;;;;;4997631;28;20510;-86
2022/07/11 08:23:27;;;;;;;3.00;2.70;;;29.70;54.00;;;;;;5018011;28;20501;-85
2022/07/11 08:25:53;;;;;;;3.67;3.00;;;30.30;52.20;;;;;;5015576;28;20443;-86
2022/07/11 08:28:20;;;;;;;3.60;2.73;;;30.20;51.80;;;;;;4995439;28;20460;-86
2022/07/11 08:30:48;;;;;;;3.50;2.70;;;30.80;50.00;;;;;;4994086;28;20440;-86
2022/07/11 08:33:15;;;;;;;2.60;2.40;;;30.40;50.00;;;;;;4994019;28;20537;-86
2022/07/11 08:35:41;;;;;;;3.03;2.10;;;30.20;50.10;;;;;;4994835;28;20453;-87
2022/07/11 08:38:08;;;;;;;3.57;2.40;;;29.60;51.00;;;;;;5000049;28;20463;-86
2022/07/11 08:40:35;;;;;;;4.00;2.00;;;30.60;50.60;;;;;;5010113;28;20493;-85
2022/07/11 08:43:06;;;;;;;5.53;2.47;;;30.70;49.10;;;;;;4994867;28;20470;-86
2022/07/11 08:45:32;;;;;;;3.20;2.87;;;29.60;50.20;;;;;;4994827;28;20447;-87
2022/07/11 08:48:02;;;;;;;3.40;2.57;;;29.30;51.20;;;;;;4994075;28;20454;-86
2022/07/11 08:50:30;;;;;;;3.30;2.93;;;28.00;53.70;;;;;;5016929;28;20440;-86
2022/07/11 08:52:59;;;;;;;2.83;2.23;;;28.70;52.60;;;;;;5007324;28;20453;-87
2022/07/11 08:55:26;;;;;;;2.87;2.43;;;30.20;51.20;;;;;;4997463;28;20447;-87
2022/07/11 08:57:53;;;;;;;3.40;3.10;;;30.80;49.30;;;;;;5003582;28;20464;-87
2022/07/11 09:00:20;;;;;;;4.20;3.10;;;30.70;49.50;;;;;;5001116;28;20482;-87
2022/07/11 09:02:47;;;;;;;8.87;2.60;;;31.60;48.00;;;;;;5001128;28;20458;-87
2022/07/11 09:05:16;;;;;;;2.97;2.40;;;31.60;47.70;;;;;;4996114;28;20469;-87
2022/07/11 09:07:45;;;;;;;3.20;2.30;;;31.20;47.70;;;;;;4996265;28;20454;-87
2022/07/11 09:10:14;;;;;;;3.70;1.63;;;32.30;47.00;;;;;;5002108;28;20455;-89
2022/07/11 09:13:00;;;;;;;2.43;2.20;;;33.30;44.80;;;;;;4995448;28;20449;-85
2022/07/11 09:15:34;;;;;;;2.60;2.23;;;34.50;42.80;;;;;;4994009;28;20460;-87
2022/07/11 09:18:01;;;;;;;2.00;1.67;;;35.00;41.50;;;;;;4993506;28;20547;-83
2022/07/11 09:25:19;;;;;;;1.97;1.60;;;35.60;40.50;;;;;;4994187;28;20581;-83
2022/07/11 09:26:06;;;;;;;2.50;1.60;;;34.90;40.50;;;;;;4992701;28;20440;-82
2022/07/11 09:28:33;;;;;;;1.60;1.40;;;34.50;40.70;;;;;;4993982;28;20480;-83
2022/07/11 09:31:00;;;;;;;1.70;1.50;;;34.40;40.70;;;;;;4993218;28;20490;-82
2022/07/11 09:33:27;;;;;;;2.23;1.70;;;35.10;40.20;;;;;;4995420;28;20893;-82
2022/07/11 09:35:56;;;;;;;2.90;1.50;;;35.10;39.50;;;;;;5000667;28;20455;-81
2022/07/11 09:38:22;;;;;;;2.87;1.50;;;36.20;38.90;;;;;;4994153;28;20452;-84
2022/07/11 09:40:50;;;;;;;2.73;1.63;;;33.50;40.30;;;;;;4993892;28;20495;-83
2022/07/11 09:43:25;;;;;;;2.00;1.63;;;32.20;42.50;;;;;;4993928;28;20549;-83
2022/07/11 09:45:52;;;;;;;1.87;1.60;;;31.30;43.50;;;;;;4991947;28;20451;-83
2022/07/11 09:48:19;;;;;;;4.13;1.80;;;30.30;45.00;;;;;;4993324;28;20485;-83
2022/07/11 09:51:00;;;;;;;4.07;2.13;;;29.90;46.60;;;;;;4993807;28;20452;-83
2022/07/11 09:53:27;;;;;;;2.37;1.40;;;30.10;46.70;;;;;;4993442;28;20477;-83
2022/07/11 09:55:53;;;;;;;2.17;1.57;;;30.80;46.00;;;;;;5010960;28;20454;-82
2022/07/11 09:58:22;;;;;;;1.87;1.23;;;31.40;44.30;;;;;;5004116;28;20439;-82
2022/07/11 10:00:50;;;;;;;1.50;1.40;;;31.60;43.40;;;;;;4992921;28;20574;-83
2022/07/11 10:03:17;;;;;;;1.60;1.30;;;31.10;44.00;;;;;;4993206;28;20516;-82
2022/07/11 10:05:43;;;;;;;1.40;1.27;;;31.90;43.60;;;;;;4992838;28;20448;-83
2022/07/11 10:08:12;;;;;;;1.87;1.50;;;31.70;43.50;;;;;;4993149;28;20506;-83
2022/07/11 10:10:38;;;;;;;2.70;1.80;;;31.90;43.30;;;;;;4993252;28;20462;-83
2022/07/11 10:13:05;;;;;;;1.87;1.33;;;31.00;44.30;;;;;;4994356;28;20481;-82
2022/07/11 10:15:35;;;;;;;3.40;1.40;;;30.20;46.00;;;;;;4995275;28;20507;-83
2022/07/11 10:18:10;;;;;;;1.90;1.80;;;30.00;46.60;;;;;;4995789;28;20450;-83
2022/07/11 10:20:45;;;;;;;2.20;1.60;;;30.20;46.70;;;;;;4995874;28;20483;-82
2022/07/11 10:23:25;;;;;;;2.63;1.43;;;30.30;46.30;;;;;;4995697;28;20448;-82
2022/07/11 10:25:58;;;;;;;3.33;2.30;;;29.30;47.40;;;;;;4996130;28;20451;-83
2022/07/11 10:28:31;;;;;;;2.40;2.00;;;29.10;48.30;;;;;;4996600;28;20482;-83
2022/07/11 10:31:00;;;;;;;2.00;1.80;;;28.80;48.80;;;;;;4995824;28;20512;-82
2022/07/11 10:33:28;;;;;;;1.70;1.60;;;28.50;49.40;;;;;;4995054;28;20562;-82
2022/07/11 10:35:55;;;;;;;1.80;1.20;;;28.80;49.50;;;;;;4994946;28;20485;-82
2022/07/11 10:38:24;;;;;;;3.50;1.50;;;30.80;47.70;;;;;;4999022;28;20976;-82
2022/07/11 10:40:52;;;;;;;1.80;1.70;;;33.70;42.80;;;;;;5002191;28;20503;-83
2022/07/11 10:43:36;;;;;;;1.90;1.80;;;33.80;41.30;;;;;;4996489;28;20473;-82
2022/07/11 10:46:05;;;;;;;2.27;1.40;;;33.50;41.60;;;;;;4994827;28;20459;-82
2022/07/11 10:48:34;;;;;;;2.40;1.57;;;32.70;42.40;;;;;;4995358;28;20454;-82
2022/07/11 10:51:17;;;;;;;2.13;1.63;;;32.00;43.10;;;;;;4996100;28;20846;-82
2022/07/11 10:53:49;;;;;;;1.80;1.60;;;31.40;44.40;;;;;;4999889;28;20474;-82
2022/07/11 10:56:28;;;;;;;2.17;1.60;;;31.00;45.40;;;;;;5012587;28;20447;-82
2022/07/11 10:59:06;;;;;;;1.90;1.70;;;30.80;45.70;;;;;;5013347;28;20453;-82
2022/07/11 11:01:33;;;;;;;1.50;1.40;;;30.60;45.80;;;;;;5014126;28;20506;-82
2022/07/11 11:04:38;;;;;;;1.50;1.40;;;30.30;46.60;;;;;;5017858;28;20470;-82
2022/07/11 11:07:05;;;;;;;2.00;1.80;;;29.80;47.20;;;;;;4984322;28;21111;-83
2022/07/11 11:09:40;;;;;;;2.90;1.80;;;29.80;47.30;;;;;;4998484;28;20452;-83
2022/07/11 11:12:07;;;;;;;2.50;1.70;;;29.70;47.60;;;;;;4998804;28;20470;-83
2022/07/11 11:14:33;;;;;;;1.40;1.30;;;29.10;47.80;;;;;;4999184;28;20513;-83
2022/07/11 11:17:33;;;;;;;3.37;1.83;;;29.20;48.20;;;;;;4996286;28;20513;-83
2022/07/11 11:20:01;;;;;;;3.07;1.73;;;29.30;48.10;;;;;;5016335;28;20550;-83
2022/07/11 11:22:28;;;;;;;2.70;1.30;;;29.10;48.30;;;;;;5010757;28;20469;-82
2022/07/11 11:24:58;;;;;;;3.80;1.80;;;29.30;48.20;;;;;;5005642;28;20465;-84
2022/07/11 11:27:25;;;;;;;1.97;1.77;;;29.30;48.10;;;;;;5011505;28;20450;-84
2022/07/11 11:29:54;;;;;;;2.57;1.73;;;29.40;47.90;;;;;;5010928;28;20447;-84
2022/07/11 11:32:23;;;;;;;3.17;1.50;;;30.10;47.30;;;;;;5001487;28;20519;-83
2022/07/11 11:34:50;;;;;;;1.80;1.60;;;30.30;46.40;;;;;;4996435;28;20481;-83
2022/07/11 11:37:18;;;;;;;2.00;1.80;;;30.00;46.20;;;;;;4999012;28;20444;-83
2022/07/11 11:39:46;;;;;;;2.17;1.97;;;29.90;47.50;;;;;;4997143;28;20480;-83
2022/07/11 11:42:16;;;;;;;1.97;1.50;;;31.20;46.30;;;;;;4996225;28;20586;-83
2022/07/11 11:44:58;;;;;;;2.13;1.77;;;34.30;43.10;;;;;;4998618;28;20534;-83
2022/07/11 11:47:26;;;;;;;2.30;2.00;;;36.30;39.20;;;;;;5000649;28;20476;-83
2022/07/11 11:49:53;;;;;;;2.23;1.60;;;36.50;37.70;;;;;;5000030;28;20482;-84
2022/07/11 11:52:20;;;;;;;4.63;2.37;;;38.50;36.20;;;;;;4996235;28;20458;-83
2022/07/11 11:54:56;;;;;;;2.10;1.70;;;38.30;34.70;;;;;;5013772;28;20466;-83
2022/07/11 11:57:26;;;;;;;1.50;1.20;;;38.00;34.90;;;;;;5004416;28;20454;-83
2022/07/11 11:59:52;;;;;;;1.87;1.67;;;37.30;35.60;;;;;;4994892;28;20478;-84
2022/07/11 12:02:23;;;;;;;1.73;1.40;;;39.30;33.90;;;;;;4994410;28;20621;-83
2022/07/11 12:04:50;;;;;;;1.43;1.33;;;39.20;32.00;;;;;;4994521;28;20852;-83
2022/07/11 12:07:23;;;;;;;1.87;1.50;;;38.50;33.00;;;;;;4995078;28;20455;-83
2022/07/11 12:09:54;;;;;;;2.20;2.00;;;37.00;34.70;;;;;;4993835;28;20541;-83
2022/07/11 12:15:31;;;;;;;2.27;2.00;;;32.40;40.70;;;;;;4993432;28;20559;-83
2022/07/11 12:18:04;;;;;;;2.23;2.03;;;31.00;43.60;;;;;;4995052;28;20455;-82
2022/07/11 12:20:35;;;;;;;2.97;2.23;;;30.30;45.10;;;;;;4994938;28;20447;-86
2022/07/11 12:23:04;;;;;;;2.23;2.03;;;29.80;46.10;;;;;;4995138;28;20450;-86
2022/07/11 12:25:31;;;;;;;2.53;2.10;;;29.70;46.70;;;;;;5000277;28;20445;-86
2022/07/11 12:27:58;;;;;;;2.67;2.00;;;31.00;45.70;;;;;;4998878;28;20511;-85
2022/07/11 12:30:26;;;;;;;2.10;1.90;;;31.20;44.50;;;;;;5010306;28;20438;-85
2022/07/11 12:33:04;;;;;;;1.60;1.50;;;31.70;43.60;;;;;;5014814;28;20508;-84
2022/07/11 12:35:31;;;;;;;2.37;1.63;;;31.50;43.90;;;;;;5015726;28;20480;-85
2022/07/11 12:37:57;;;;;;;2.57;2.20;;;31.60;43.90;;;;;;5016469;28;20448;-85
2022/07/11 12:40:24;;;;;;;2.70;1.63;;;31.40;43.90;;;;;;5012471;28;20439;-86
2022/07/11 12:42:51;;;;;;;2.00;1.77;;;31.10;44.80;;;;;;5008986;28;20443;-85
2022/07/11 12:45:17;;;;;;;2.63;2.43;;;31.70;44.40;;;;;;5004346;28;20464;-86
2022/07/11 12:47:49;;;;;;;2.37;1.97;;;31.50;44.10;;;;;;5006664;28;20455;-85
2022/07/11 12:50:23;;;;;;;2.40;2.20;;;31.00;44.80;;;;;;5007066;28;20444;-85
2022/07/11 12:52:52;;;;;;;1.83;1.73;;;30.60;45.60;;;;;;5006118;28;20431;-86
2022/07/11 12:55:24;;;;;;;1.80;1.70;;;30.30;45.90;;;;;;5017182;28;20454;-85
2022/07/11 12:58:07;;;;;;;3.47;2.03;;;30.10;46.90;;;;;;5017142;28;20433;-85
2022/07/11 13:00:36;;;;;;;3.00;2.40;;;29.80;47.00;;;;;;5017367;28;20431;-85
2022/07/11 13:09:16;;;;;;;2.67;2.37;;;29.50;47.60;;;;;;4947389;28;20526;-86
2022/07/11 13:11:43;;;;;;;2.50;2.30;;;30.10;47.40;;;;;;4996259;28;20426;-86